Terminal Aerodrome Forecast
Issued by NWS Portland, ME

Home | Current Version | Previous Version | Text Only | Print | Product List | Glossary On
Versions: 1 2 3 4 5 6 7 8 9 10 11 12 13 14 15 16 17 18 19 20 21 22
905
FTUS41 KGYX 071741
TAFCON
TAF
KCON 071741Z 0718/0818 25006KT P6SM SCT060
     FM072200 02006KT P6SM SCT060
     FM081100 01010KT P6SM BKN150=

USA.gov is the U.S. government's official web portal to all federal, state and local government web resources and services.